sensor_id;sensor_type;location;lat;lon;timestamp;pressure;altitude;pressure_sealevel;temperature;humidity
10638;BME280;47007;49.252;8.904;2022-09-12T00:01:35;99969.03;;;13.38;100.00
10638;BME280;47007;49.252;8.904;2022-09-12T00:04:02;99958.00;;;13.48;100.00
10638;BME280;47007;49.252;8.904;2022-09-12T00:06:34;99964.81;;;13.57;100.00
10638;BME280;47007;49.252;8.904;2022-09-12T00:09:11;99960.06;;;13.46;100.00
10638;BME280;47007;49.252;8.904;2022-09-12T00:11:40;99954.69;;;13.33;100.00
10638;BME280;47007;49.252;8.904;2022-09-12T00:14:11;99955.34;;;13.48;100.00
10638;BME280;47007;49.252;8.904;2022-09-12T00:16:41;99956.41;;;13.53;100.00
10638;BME280;47007;49.252;8.904;2022-09-12T00:19:09;99959.25;;;13.52;100.00
10638;BME280;47007;49.252;8.904;2022-09-12T00:21:37;99932.16;;;13.35;100.00
10638;BME280;47007;49.252;8.904;2022-09-12T00:24:05;99953.47;;;13.42;100.00
10638;BME280;47007;49.252;8.904;2022-09-12T00:26:31;99897.16;;;13.04;100.00
10638;BME280;47007;49.252;8.904;2022-09-12T00:28:58;99954.06;;;13.30;100.00
10638;BME280;47007;49.252;8.904;2022-09-12T00:31:31;99956.28;;;13.27;100.00
10638;BME280;47007;49.252;8.904;2022-09-12T00:33:58;99928.94;;;13.12;100.00
10638;BME280;47007;49.252;8.904;2022-09-12T00:36:33;99950.94;;;13.20;100.00
10638;BME280;47007;49.252;8.904;2022-09-12T00:39:14;99951.13;;;13.19;100.00
10638;BME280;47007;49.252;8.904;2022-09-12T00:41:42;99953.91;;;13.11;100.00
10638;BME280;47007;49.252;8.904;2022-09-12T00:52:11;99945.19;;;12.89;100.00
10638;BME280;47007;49.252;8.904;2022-09-12T00:55:01;99937.38;;;12.87;100.00
10638;BME280;47007;49.252;8.904;2022-09-12T00:57:32;99950.69;;;12.87;100.00
10638;BME280;47007;49.252;8.904;2022-09-12T01:00:08;99910.66;;;12.68;100.00
10638;BME280;47007;49.252;8.904;2022-09-12T01:02:39;99927.53;;;12.81;100.00
10638;BME280;47007;49.252;8.904;2022-09-12T01:05:07;99934.53;;;12.89;100.00
10638;BME280;47007;49.252;8.904;2022-09-12T01:07:36;99873.00;;;12.64;100.00
10638;BME280;47007;49.252;8.904;2022-09-12T01:10:07;99934.53;;;13.17;100.00
10638;BME280;47007;49.252;8.904;2022-09-12T01:12:37;99910.09;;;13.07;100.00
10638;BME280;47007;49.252;8.904;2022-09-12T01:15:05;99926.91;;;13.14;100.00
10638;BME280;47007;49.252;8.904;2022-09-12T01:35:17;99912.63;;;12.87;100.00
10638;BME280;47007;49.252;8.904;2022-09-12T01:40:45;99918.28;;;12.71;100.00
10638;BME280;47007;49.252;8.904;2022-09-12T01:51:23;99921.47;;;12.59;100.00
10638;BME280;47007;49.252;8.904;2022-09-12T01:54:01;99910.97;;;12.51;100.00
10638;BME280;47007;49.252;8.904;2022-09-12T01:56:33;99926.78;;;12.59;100.00
10638;BME280;47007;49.252;8.904;2022-09-12T01:59:07;99919.63;;;12.60;100.00
10638;BME280;47007;49.252;8.904;2022-09-12T02:01:43;99913.06;;;12.63;100.00
10638;BME280;47007;49.252;8.904;2022-09-12T02:04:17;99909.81;;;12.61;100.00
10638;BME280;47007;49.252;8.904;2022-09-12T02:06:49;99911.22;;;12.56;100.00
10638;BME280;47007;49.252;8.904;2022-09-12T02:09:21;99907.63;;;12.71;100.00
10638;BME280;47007;49.252;8.904;2022-09-12T02:11:52;99892.50;;;12.71;100.00
10638;BME280;47007;49.252;8.904;2022-09-12T02:14:24;99899.75;;;12.84;100.00
10638;BME280;47007;49.252;8.904;2022-09-12T02:17:02;99902.22;;;12.92;100.00
10638;BME280;47007;49.252;8.904;2022-09-12T02:19:42;99898.81;;;12.98;100.00
10638;BME280;47007;49.252;8.904;2022-09-12T02:22:18;99903.69;;;13.01;100.00
10638;BME280;47007;49.252;8.904;2022-09-12T02:24:51;99888.94;;;12.99;100.00
10638;BME280;47007;49.252;8.904;2022-09-12T02:27:29;99897.56;;;13.01;100.00
10638;BME280;47007;49.252;8.904;2022-09-12T02:29:58;99888.09;;;12.85;100.00
10638;BME280;47007;49.252;8.904;2022-09-12T02:33:06;99890.50;;;12.80;100.00
10638;BME280;47007;49.252;8.904;2022-09-12T02:35:48;99881.25;;;12.76;100.00
10638;BME280;47007;49.252;8.904;2022-09-12T02:40:48;99865.34;;;12.48;100.00
10638;BME280;47007;49.252;8.904;2022-09-12T02:43:15;99888.09;;;12.57;100.00
10638;BME280;47007;49.252;8.904;2022-09-12T02:45:42;99883.22;;;12.61;100.00
10638;BME280;47007;49.252;8.904;2022-09-12T02:48:23;99887.81;;;12.45;100.00
10638;BME280;47007;49.252;8.904;2022-09-12T02:50:52;99885.16;;;12.45;100.00
10638;BME280;47007;49.252;8.904;2022-09-12T02:53:19;99876.59;;;12.50;100.00
10638;BME280;47007;49.252;8.904;2022-09-12T02:55:48;99854.03;;;12.39;100.00
10638;BME280;47007;49.252;8.904;2022-09-12T02:58:17;99882.34;;;12.53;100.00
10638;BME280;47007;49.252;8.904;2022-09-12T03:00:52;99874.28;;;12.40;100.00
10638;BME280;47007;49.252;8.904;2022-09-12T03:03:36;99877.47;;;12.29;100.00
10638;BME280;47007;49.252;8.904;2022-09-12T03:06:17;99872.31;;;12.21;100.00
10638;BME280;47007;49.252;8.904;2022-09-12T03:22:30;99876.72;;;12.14;100.00
10638;BME280;47007;49.252;8.904;2022-09-12T03:25:09;99835.81;;;11.87;100.00
10638;BME280;47007;49.252;8.904;2022-09-12T03:27:48;99881.63;;;12.10;100.00
10638;BME280;47007;49.252;8.904;2022-09-12T03:30:18;99884.84;;;12.06;100.00
10638;BME280;47007;49.252;8.904;2022-09-12T03:32:47;99879.72;;;12.04;100.00
10638;BME280;47007;49.252;8.904;2022-09-12T03:35:16;99859.03;;;12.00;100.00
10638;BME280;47007;49.252;8.904;2022-09-12T03:37:49;99881.09;;;12.21;100.00
10638;BME280;47007;49.252;8.904;2022-09-12T03:40:16;99879.56;;;12.34;100.00
10638;BME280;47007;49.252;8.904;2022-09-12T03:42:43;99884.09;;;12.40;100.00
10638;BME280;47007;49.252;8.904;2022-09-12T03:45:10;99853.69;;;12.21;100.00
10638;BME280;47007;49.252;8.904;2022-09-12T03:47:37;99868.22;;;12.25;100.00
10638;BME280;47007;49.252;8.904;2022-09-12T03:50:05;99865.88;;;12.09;100.00
10638;BME280;47007;49.252;8.904;2022-09-12T03:52:32;99881.50;;;12.25;100.00
10638;BME280;47007;49.252;8.904;2022-09-12T03:54:58;99850.41;;;12.19;100.00
10638;BME280;47007;49.252;8.904;2022-09-12T03:57:55;99876.91;;;12.34;100.00
10638;BME280;47007;49.252;8.904;2022-09-12T04:00:23;99878.09;;;12.31;100.00
10638;BME280;47007;49.252;8.904;2022-09-12T04:02:55;99886.63;;;12.27;100.00
10638;BME280;47007;49.252;8.904;2022-09-12T04:05:23;99886.41;;;12.21;100.00
10638;BME280;47007;49.252;8.904;2022-09-12T04:07:50;99872.63;;;12.11;100.00
10638;BME280;47007;49.252;8.904;2022-09-12T04:10:17;99857.16;;;11.94;100.00
10638;BME280;47007;49.252;8.904;2022-09-12T04:12:44;99862.91;;;11.97;100.00
10638;BME280;47007;49.252;8.904;2022-09-12T04:15:11;99864.28;;;11.93;100.00
10638;BME280;47007;49.252;8.904;2022-09-12T04:17:37;99873.34;;;11.99;100.00
10638;BME280;47007;49.252;8.904;2022-09-12T04:20:04;99878.84;;;11.97;100.00
10638;BME280;47007;49.252;8.904;2022-09-12T04:22:31;99881.31;;;11.99;100.00
10638;BME280;47007;49.252;8.904;2022-09-12T04:24:58;99841.91;;;11.81;100.00
10638;BME280;47007;49.252;8.904;2022-09-12T04:27:25;99884.47;;;12.09;100.00
10638;BME280;47007;49.252;8.904;2022-09-12T04:29:52;99861.44;;;11.95;100.00
10638;BME280;47007;49.252;8.904;2022-09-12T04:32:20;99879.09;;;12.30;100.00
10638;BME280;47007;49.252;8.904;2022-09-12T04:34:47;99822.63;;;12.21;100.00
10638;BME280;47007;49.252;8.904;2022-09-12T04:37:14;99857.78;;;12.51;100.00
10638;BME280;47007;49.252;8.904;2022-09-12T04:39:42;99843.63;;;12.44;100.00
10638;BME280;47007;49.252;8.904;2022-09-12T04:42:08;99871.44;;;12.42;100.00
10638;BME280;47007;49.252;8.904;2022-09-12T04:44:35;99869.50;;;12.29;100.00
10638;BME280;47007;49.252;8.904;2022-09-12T04:47:02;99869.22;;;12.45;100.00
10638;BME280;47007;49.252;8.904;2022-09-12T04:49:29;99874.09;;;12.76;100.00
10638;BME280;47007;49.252;8.904;2022-09-12T04:51:56;99850.97;;;12.70;100.00
10638;BME280;47007;49.252;8.904;2022-09-12T04:54:23;99857.31;;;12.76;100.00
10638;BME280;47007;49.252;8.904;2022-09-12T04:56:50;99860.88;;;12.89;100.00
10638;BME280;47007;49.252;8.904;2022-09-12T04:59:18;99866.53;;;12.73;100.00
10638;BME280;47007;49.252;8.904;2022-09-12T05:01:45;99852.66;;;12.50;100.00
10638;BME280;47007;49.252;8.904;2022-09-12T05:04:12;99868.94;;;12.34;100.00
10638;BME280;47007;49.252;8.904;2022-09-12T05:06:40;99862.44;;;12.15;100.00
10638;BME280;47007;49.252;8.904;2022-09-12T05:09:09;99868.84;;;12.27;100.00
10638;BME280;47007;49.252;8.904;2022-09-12T05:11:39;99865.19;;;12.28;100.00
10638;BME280;47007;49.252;8.904;2022-09-12T05:14:26;99868.31;;;12.38;100.00
10638;BME280;47007;49.252;8.904;2022-09-12T05:16:52;99877.59;;;12.49;100.00
10638;BME280;47007;49.252;8.904;2022-09-12T05:19:19;99840.81;;;12.24;100.00
10638;BME280;47007;49.252;8.904;2022-09-12T05:21:46;99879.66;;;12.47;100.00
10638;BME280;47007;49.252;8.904;2022-09-12T05:24:12;99844.38;;;12.32;100.00
10638;BME280;47007;49.252;8.904;2022-09-12T05:26:39;99873.09;;;12.77;100.00
10638;BME280;47007;49.252;8.904;2022-09-12T05:29:06;99865.16;;;12.84;100.00
10638;BME280;47007;49.252;8.904;2022-09-12T05:31:33;99842.75;;;12.65;100.00
10638;BME280;47007;49.252;8.904;2022-09-12T05:34:00;99840.59;;;12.82;100.00
10638;BME280;47007;49.252;8.904;2022-09-12T05:36:28;99886.13;;;13.07;100.00
10638;BME280;47007;49.252;8.904;2022-09-12T05:38:56;99884.81;;;12.89;100.00
10638;BME280;47007;49.252;8.904;2022-09-12T05:41:24;99867.38;;;12.46;100.00
10638;BME280;47007;49.252;8.904;2022-09-12T05:43:53;99850.78;;;12.16;100.00
10638;BME280;47007;49.252;8.904;2022-09-12T05:46:22;99880.38;;;12.34;100.00
10638;BME280;47007;49.252;8.904;2022-09-12T05:48:51;99869.66;;;12.21;100.00
10638;BME280;47007;49.252;8.904;2022-09-12T05:51:24;99876.78;;;12.20;100.00
10638;BME280;47007;49.252;8.904;2022-09-12T05:53:56;99884.63;;;12.29;100.00
10638;BME280;47007;49.252;8.904;2022-09-12T05:56:28;99871.50;;;12.48;100.00
10638;BME280;47007;49.252;8.904;2022-09-12T05:59:01;99882.28;;;12.75;100.00
10638;BME280;47007;49.252;8.904;2022-09-12T06:01:29;99871.16;;;12.65;100.00
10638;BME280;47007;49.252;8.904;2022-09-12T06:04:00;99880.22;;;12.70;100.00
10638;BME280;47007;49.252;8.904;2022-09-12T06:06:28;99859.91;;;12.63;100.00
10638;BME280;47007;49.252;8.904;2022-09-12T06:08:59;99880.69;;;12.87;100.00
10638;BME280;47007;49.252;8.904;2022-09-12T06:11:29;99879.69;;;12.88;100.00
10638;BME280;47007;49.252;8.904;2022-09-12T06:13:57;99876.84;;;12.89;100.00
10638;BME280;47007;49.252;8.904;2022-09-12T06:16:27;99872.97;;;12.92;100.00
10638;BME280;47007;49.252;8.904;2022-09-12T06:18:56;99867.66;;;12.92;100.00
10638;BME280;47007;49.252;8.904;2022-09-12T06:21:24;99882.59;;;13.00;100.00
10638;BME280;47007;49.252;8.904;2022-09-12T06:23:54;99874.44;;;13.01;100.00
10638;BME280;47007;49.252;8.904;2022-09-12T06:26:21;99859.69;;;12.99;100.00
10638;BME280;47007;49.252;8.904;2022-09-12T06:28:53;99881.72;;;13.20;100.00
10638;BME280;47007;49.252;8.904;2022-09-12T06:31:28;99879.72;;;13.36;100.00
10638;BME280;47007;49.252;8.904;2022-09-12T06:33:59;99888.81;;;13.54;100.00
10638;BME280;47007;49.252;8.904;2022-09-12T06:36:29;99881.88;;;13.73;100.00
10638;BME280;47007;49.252;8.904;2022-09-12T06:38:58;99878.44;;;13.92;100.00
10638;BME280;47007;49.252;8.904;2022-09-12T06:41:27;99874.56;;;14.15;100.00
10638;BME280;47007;49.252;8.904;2022-09-12T06:43:54;99858.97;;;14.31;100.00
10638;BME280;47007;49.252;8.904;2022-09-12T06:46:21;99868.81;;;14.70;100.00
10638;BME280;47007;49.252;8.904;2022-09-12T06:48:48;99872.59;;;15.01;100.00
10638;BME280;47007;49.252;8.904;2022-09-12T06:51:17;99848.47;;;15.27;100.00
10638;BME280;47007;49.252;8.904;2022-09-12T06:53:45;99857.94;;;15.68;100.00
10638;BME280;47007;49.252;8.904;2022-09-12T06:56:20;99839.88;;;15.95;100.00
10638;BME280;47007;49.252;8.904;2022-09-12T06:58:48;99856.25;;;16.48;100.00
10638;BME280;47007;49.252;8.904;2022-09-12T07:01:20;99856.31;;;16.84;100.00
10638;BME280;47007;49.252;8.904;2022-09-12T07:03:53;99861.66;;;17.21;100.00
10638;BME280;47007;49.252;8.904;2022-09-12T07:06:22;99833.22;;;17.38;100.00
10638;BME280;47007;49.252;8.904;2022-09-12T07:08:58;99855.88;;;17.84;100.00
10638;BME280;47007;49.252;8.904;2022-09-12T07:11:30;99843.00;;;18.16;100.00
10638;BME280;47007;49.252;8.904;2022-09-12T07:13:59;99819.91;;;18.26;100.00
10638;BME280;47007;49.252;8.904;2022-09-12T07:16:26;99801.13;;;18.38;100.00
10638;BME280;47007;49.252;8.904;2022-09-12T07:18:56;99813.34;;;18.57;100.00
10638;BME280;47007;49.252;8.904;2022-09-12T07:21:23;99839.59;;;18.90;100.00
10638;BME280;47007;49.252;8.904;2022-09-12T07:23:50;99844.91;;;19.14;100.00
10638;BME280;47007;49.252;8.904;2022-09-12T07:26:17;99840.38;;;19.14;100.00
10638;BME280;47007;49.252;8.904;2022-09-12T07:28:44;99839.28;;;19.27;100.00
10638;BME280;47007;49.252;8.904;2022-09-12T07:31:14;99846.78;;;19.53;100.00
10638;BME280;47007;49.252;8.904;2022-09-12T07:33:42;99853.03;;;19.87;100.00
10638;BME280;47007;49.252;8.904;2022-09-12T07:36:11;99846.34;;;20.06;100.00
10638;BME280;47007;49.252;8.904;2022-09-12T07:38:39;99830.63;;;20.15;100.00
10638;BME280;47007;49.252;8.904;2022-09-12T07:41:26;99851.69;;;20.52;100.00
10638;BME280;47007;49.252;8.904;2022-09-12T07:43:58;99847.03;;;20.86;100.00
10638;BME280;47007;49.252;8.904;2022-09-12T07:46:26;99837.88;;;21.08;100.00
10638;BME280;47007;49.252;8.904;2022-09-12T07:48:56;99846.94;;;21.46;100.00
10638;BME280;47007;49.252;8.904;2022-09-12T07:51:24;99835.66;;;21.49;100.00
10638;BME280;47007;49.252;8.904;2022-09-12T07:53:51;99836.97;;;21.73;100.00
10638;BME280;47007;49.252;8.904;2022-09-12T07:56:18;99824.16;;;21.91;100.00
10638;BME280;47007;49.252;8.904;2022-09-12T07:58:47;99843.34;;;22.21;100.00
10638;BME280;47007;49.252;8.904;2022-09-12T08:01:19;99840.22;;;22.02;100.00
10638;BME280;47007;49.252;8.904;2022-09-12T08:03:47;99838.91;;;22.05;100.00
10638;BME280;47007;49.252;8.904;2022-09-12T08:06:18;99844.41;;;22.20;100.00
10638;BME280;47007;49.252;8.904;2022-09-12T08:08:53;99837.25;;;22.36;100.00
10638;BME280;47007;49.252;8.904;2022-09-12T08:11:21;99842.91;;;22.39;100.00
10638;BME280;47007;49.252;8.904;2022-09-12T08:13:48;99838.63;;;22.43;100.00
10638;BME280;47007;49.252;8.904;2022-09-12T08:16:23;99842.81;;;22.66;100.00
10638;BME280;47007;49.252;8.904;2022-09-12T08:18:50;99832.41;;;22.43;100.00
10638;BME280;47007;49.252;8.904;2022-09-12T08:21:19;99841.84;;;22.35;100.00
10638;BME280;47007;49.252;8.904;2022-09-12T08:23:51;99848.25;;;22.24;100.00
10638;BME280;47007;49.252;8.904;2022-09-12T08:26:18;99846.78;;;22.48;100.00
10638;BME280;47007;49.252;8.904;2022-09-12T08:28:45;99845.69;;;22.86;100.00
10638;BME280;47007;49.252;8.904;2022-09-12T08:31:14;99847.94;;;23.10;100.00
10638;BME280;47007;49.252;8.904;2022-09-12T08:33:41;99837.16;;;23.20;100.00
10638;BME280;47007;49.252;8.904;2022-09-12T08:36:12;99852.59;;;23.29;100.00
10638;BME280;47007;49.252;8.904;2022-09-12T08:38:43;99851.00;;;23.34;100.00
10638;BME280;47007;49.252;8.904;2022-09-12T08:52:53;99821.81;;;23.46;100.00
10638;BME280;47007;49.252;8.904;2022-09-12T08:58:00;99834.88;;;23.94;98.14
10638;BME280;47007;49.252;8.904;2022-09-12T09:00:41;99815.94;;;23.94;94.75
10638;BME280;47007;49.252;8.904;2022-09-12T09:09:15;99821.00;;;24.62;90.71
10638;BME280;47007;49.252;8.904;2022-09-12T09:14:42;99823.81;;;25.21;88.90
10638;BME280;47007;49.252;8.904;2022-09-12T09:17:38;99824.69;;;25.51;81.60
10638;BME280;47007;49.252;8.904;2022-09-12T09:22:51;99820.34;;;25.55;77.75
10638;BME280;47007;49.252;8.904;2022-09-12T09:25:28;99811.28;;;25.25;80.60
10638;BME280;47007;49.252;8.904;2022-09-12T09:28:05;99814.03;;;25.20;82.28
10638;BME280;47007;49.252;8.904;2022-09-12T09:30:33;99816.91;;;25.39;80.01
10638;BME280;47007;49.252;8.904;2022-09-12T09:33:02;99817.50;;;25.31;79.68
10638;BME280;47007;49.252;8.904;2022-09-12T09:43:59;99812.94;;;26.04;73.07
10638;BME280;47007;49.252;8.904;2022-09-12T09:46:26;99821.50;;;26.17;75.78
10638;BME280;47007;49.252;8.904;2022-09-12T09:48:55;99812.88;;;26.43;70.29
10638;BME280;47007;49.252;8.904;2022-09-12T09:51:26;99813.56;;;26.54;67.01
10638;BME280;47007;49.252;8.904;2022-09-12T09:53:57;99804.47;;;26.64;70.68
10638;BME280;47007;49.252;8.904;2022-09-12T09:56:38;99802.03;;;26.86;69.28
10638;BME280;47007;49.252;8.904;2022-09-12T09:59:31;99797.47;;;26.81;65.31
10638;BME280;47007;49.252;8.904;2022-09-12T10:04:33;99796.53;;;26.91;62.63
10638;BME280;47007;49.252;8.904;2022-09-12T10:07:17;99798.78;;;26.60;63.93
10638;BME280;47007;49.252;8.904;2022-09-12T10:12:29;99797.81;;;26.51;64.90
10638;BME280;47007;49.252;8.904;2022-09-12T10:14:58;99796.03;;;26.65;64.48
10638;BME280;47007;49.252;8.904;2022-09-12T10:17:50;99781.47;;;26.32;65.56
10638;BME280;47007;49.252;8.904;2022-09-12T10:20:44;99780.81;;;26.64;68.50
10638;BME280;47007;49.252;8.904;2022-09-12T10:23:34;99751.97;;;26.87;58.04
10638;BME280;47007;49.252;8.904;2022-09-12T10:26:08;99767.47;;;26.68;60.45
10638;BME280;47007;49.252;8.904;2022-09-12T10:28:38;99765.34;;;26.83;62.17
10638;BME280;47007;49.252;8.904;2022-09-12T10:31:07;99763.34;;;27.13;62.03
10638;BME280;47007;49.252;8.904;2022-09-12T10:33:41;99771.53;;;26.89;59.43
10638;BME280;47007;49.252;8.904;2022-09-12T10:36:09;99768.00;;;26.89;60.66
10638;BME280;47007;49.252;8.904;2022-09-12T10:38:36;99734.63;;;27.07;57.56
10638;BME280;47007;49.252;8.904;2022-09-12T10:41:06;99752.41;;;27.18;58.41
10638;BME280;47007;49.252;8.904;2022-09-12T10:43:36;99771.16;;;27.38;57.78
10638;BME280;47007;49.252;8.904;2022-09-12T10:48:47;99758.56;;;27.61;55.22
10638;BME280;47007;49.252;8.904;2022-09-12T10:51:34;99763.78;;;27.39;54.63
10638;BME280;47007;49.252;8.904;2022-09-12T10:54:03;99756.97;;;27.41;55.81
10638;BME280;47007;49.252;8.904;2022-09-12T10:56:35;99745.13;;;27.83;54.73
10638;BME280;47007;49.252;8.904;2022-09-12T10:59:36;99752.09;;;27.89;55.87
10638;BME280;47007;49.252;8.904;2022-09-12T11:02:13;99751.69;;;27.96;54.68
10638;BME280;47007;49.252;8.904;2022-09-12T11:05:06;99751.47;;;28.25;54.51
10638;BME280;47007;49.252;8.904;2022-09-12T11:23:42;99697.13;;;28.83;50.59
10638;BME280;47007;49.252;8.904;2022-09-12T11:33:54;99672.41;;;28.66;50.34
10638;BME280;47007;49.252;8.904;2022-09-12T11:36:41;99692.91;;;28.64;49.28
10638;BME280;47007;49.252;8.904;2022-09-12T11:39:14;99700.97;;;28.00;49.23
10638;BME280;47007;49.252;8.904;2022-09-12T11:41:46;99682.91;;;27.91;49.82
10638;BME280;47007;49.252;8.904;2022-09-12T11:44:22;99692.09;;;28.63;49.65
10638;BME280;47007;49.252;8.904;2022-09-12T11:46:51;99694.88;;;28.99;48.08
10638;BME280;47007;49.252;8.904;2022-09-12T11:49:50;99694.34;;;29.33;48.03
10638;BME280;47007;49.252;8.904;2022-09-12T11:55:14;99677.69;;;29.88;45.26
10638;BME280;47007;49.252;8.904;2022-09-12T11:57:49;99683.84;;;29.04;45.18
10638;BME280;47007;49.252;8.904;2022-09-12T12:00:31;99679.59;;;28.48;46.30
10638;BME280;47007;49.252;8.904;2022-09-12T12:03:09;99688.28;;;28.50;47.50
10638;BME280;47007;49.252;8.904;2022-09-12T12:06:02;99681.69;;;29.37;47.00
10638;BME280;47007;49.252;8.904;2022-09-12T12:08:37;99683.75;;;29.85;44.10
10638;BME280;47007;49.252;8.904;2022-09-12T12:11:06;99676.19;;;30.04;43.36
10638;BME280;47007;49.252;8.904;2022-09-12T12:16:33;99666.88;;;30.70;43.43
10638;BME280;47007;49.252;8.904;2022-09-12T12:19:03;99633.69;;;30.55;42.57
10638;BME280;47007;49.252;8.904;2022-09-12T12:21:43;99664.84;;;30.28;42.41
10638;BME280;47007;49.252;8.904;2022-09-12T12:24:12;99667.50;;;30.02;43.59
10638;BME280;47007;49.252;8.904;2022-09-12T12:36:53;99647.41;;;29.76;42.19
10638;BME280;47007;49.252;8.904;2022-09-12T12:41:59;99634.09;;;30.14;43.11
10638;BME280;47007;49.252;8.904;2022-09-12T12:44:47;99614.66;;;30.32;42.08
10638;BME280;47007;49.252;8.904;2022-09-12T13:01:15;99605.25;;;29.99;40.91
10638;BME280;47007;49.252;8.904;2022-09-12T13:03:45;99602.09;;;29.83;41.80
10638;BME280;47007;49.252;8.904;2022-09-12T13:06:27;99588.50;;;29.92;41.98
10638;BME280;47007;49.252;8.904;2022-09-12T13:09:03;99596.44;;;30.11;41.63
10638;BME280;47007;49.252;8.904;2022-09-12T13:11:37;99595.69;;;29.88;40.59
10638;BME280;47007;49.252;8.904;2022-09-12T13:14:08;99579.19;;;29.53;40.50
10638;BME280;47007;49.252;8.904;2022-09-12T13:16:54;99582.59;;;29.37;40.76
10638;BME280;47007;49.252;8.904;2022-09-12T13:19:35;99586.03;;;29.42;41.99
10638;BME280;47007;49.252;8.904;2022-09-12T13:22:43;99584.50;;;29.98;40.91
10638;BME280;47007;49.252;8.904;2022-09-12T13:30:30;99581.75;;;29.58;40.30
10638;BME280;47007;49.252;8.904;2022-09-12T13:33:06;99558.88;;;28.92;41.52
10638;BME280;47007;49.252;8.904;2022-09-12T13:44:20;99551.19;;;29.17;40.54
10638;BME280;47007;49.252;8.904;2022-09-12T13:46:49;99560.34;;;28.99;40.53
10638;BME280;47007;49.252;8.904;2022-09-12T13:49:40;99559.75;;;29.33;41.93
10638;BME280;47007;49.252;8.904;2022-09-12T13:52:15;99560.91;;;29.62;40.54
10638;BME280;47007;49.252;8.904;2022-09-12T13:54:44;99561.16;;;29.92;39.78
10638;BME280;47007;49.252;8.904;2022-09-12T13:59:57;99552.41;;;30.29;38.96
10638;BME280;47007;49.252;8.904;2022-09-12T14:02:26;99545.13;;;29.99;37.59
10638;BME280;47007;49.252;8.904;2022-09-12T14:04:55;99510.19;;;29.87;38.09
10638;BME280;47007;49.252;8.904;2022-09-12T14:10:25;99540.81;;;30.24;37.06
10638;BME280;47007;49.252;8.904;2022-09-12T14:12:54;99537.09;;;30.11;37.12
10638;BME280;47007;49.252;8.904;2022-09-12T14:15:25;99539.34;;;29.52;36.81
10638;BME280;47007;49.252;8.904;2022-09-12T14:17:55;99540.22;;;29.39;38.03
10638;BME280;47007;49.252;8.904;2022-09-12T14:20:29;99534.22;;;29.59;37.74
10638;BME280;47007;49.252;8.904;2022-09-12T14:23:26;99526.91;;;29.38;38.11
10638;BME280;47007;49.252;8.904;2022-09-12T14:25:54;99527.88;;;29.19;37.69
10638;BME280;47007;49.252;8.904;2022-09-12T14:28:22;99527.50;;;29.04;38.13
10638;BME280;47007;49.252;8.904;2022-09-12T14:31:00;99521.16;;;29.17;38.44
10638;BME280;47007;49.252;8.904;2022-09-12T14:33:31;99503.81;;;28.68;37.52
10638;BME280;47007;49.252;8.904;2022-09-12T14:38:46;99523.38;;;28.70;38.28
10638;BME280;47007;49.252;8.904;2022-09-12T14:41:22;99520.84;;;28.96;38.17
10638;BME280;47007;49.252;8.904;2022-09-12T14:43:53;99521.72;;;28.83;37.06
10638;BME280;47007;49.252;8.904;2022-09-12T14:46:42;99511.47;;;28.44;38.96
10638;BME280;47007;49.252;8.904;2022-09-12T14:49:25;99510.50;;;28.62;38.71
10638;BME280;47007;49.252;8.904;2022-09-12T14:51:55;99512.41;;;28.39;37.82
10638;BME280;47007;49.252;8.904;2022-09-12T14:57:28;99490.69;;;28.34;38.29
10638;BME280;47007;49.252;8.904;2022-09-12T15:02:43;99503.44;;;28.83;37.97
10638;BME280;47007;49.252;8.904;2022-09-12T15:10:34;99492.44;;;28.75;37.91
10638;BME280;47007;49.252;8.904;2022-09-12T15:15:37;99500.31;;;28.76;38.43
10638;BME280;47007;49.252;8.904;2022-09-12T15:18:04;99487.00;;;28.75;38.37
10638;BME280;47007;49.252;8.904;2022-09-12T15:20:35;99460.38;;;28.13;37.39
10638;BME280;47007;49.252;8.904;2022-09-12T15:23:34;99484.63;;;27.87;38.19
10638;BME280;47007;49.252;8.904;2022-09-12T15:26:03;99480.53;;;27.63;38.16
10638;BME280;47007;49.252;8.904;2022-09-12T15:28:31;99467.81;;;27.72;38.78
10638;BME280;47007;49.252;8.904;2022-09-12T15:31:03;99482.72;;;27.88;39.07
10638;BME280;47007;49.252;8.904;2022-09-12T15:33:31;99459.00;;;27.88;39.14
10638;BME280;47007;49.252;8.904;2022-09-12T15:35:57;99469.88;;;28.02;37.97
10638;BME280;47007;49.252;8.904;2022-09-12T15:38:24;99433.63;;;27.79;38.28
10638;BME280;47007;49.252;8.904;2022-09-12T15:40:52;99474.38;;;27.71;38.10
10638;BME280;47007;49.252;8.904;2022-09-12T15:43:21;99466.72;;;27.59;38.58
10638;BME280;47007;49.252;8.904;2022-09-12T15:45:49;99434.03;;;27.45;38.43
10638;BME280;47007;49.252;8.904;2022-09-12T15:48:18;99463.38;;;27.35;38.55
10638;BME280;47007;49.252;8.904;2022-09-12T15:50:46;99428.84;;;26.89;38.56
10638;BME280;47007;49.252;8.904;2022-09-12T15:53:14;99453.63;;;26.88;39.04
10638;BME280;47007;49.252;8.904;2022-09-12T15:55:42;99459.16;;;26.82;39.52
10638;BME280;47007;49.252;8.904;2022-09-12T15:58:09;99456.63;;;26.86;39.77
10638;BME280;47007;49.252;8.904;2022-09-12T16:00:38;99431.16;;;26.82;39.68
10638;BME280;47007;49.252;8.904;2022-09-12T16:03:05;99448.06;;;26.79;39.45
10638;BME280;47007;49.252;8.904;2022-09-12T16:05:32;99446.34;;;26.83;39.95
10638;BME280;47007;49.252;8.904;2022-09-12T16:07:59;99436.56;;;26.68;39.78
10638;BME280;47007;49.252;8.904;2022-09-12T16:10:29;99453.28;;;26.75;39.48
10638;BME280;47007;49.252;8.904;2022-09-12T16:12:56;99447.59;;;26.58;40.06
10638;BME280;47007;49.252;8.904;2022-09-12T16:15:24;99433.75;;;26.41;40.23
10638;BME280;47007;49.252;8.904;2022-09-12T16:17:52;99446.75;;;26.44;40.29
10638;BME280;47007;49.252;8.904;2022-09-12T16:20:20;99449.31;;;26.35;40.53
10638;BME280;47007;49.252;8.904;2022-09-12T16:22:47;99424.88;;;26.17;39.81
10638;BME280;47007;49.252;8.904;2022-09-12T16:25:14;99444.31;;;26.24;40.11
10638;BME280;47007;49.252;8.904;2022-09-12T16:27:43;99441.69;;;26.19;40.42